sensor_id;sensor_type;location;lat;lon;timestamp;P1;durP1;ratioP1;P2;durP2;ratioP2
77495;SDS011;66600;48.378;9.948;2023-11-19T00:00:26;10.18;;;8.02;;
77495;SDS011;66600;48.378;9.948;2023-11-19T00:00:57;11.13;;;8.02;;
77495;SDS011;66600;48.378;9.948;2023-11-19T00:01:27;11.40;;;8.02;;
77495;SDS011;66600;48.378;9.948;2023-11-19T00:01:58;10.85;;;7.88;;
77495;SDS011;66600;48.378;9.948;2023-11-19T00:02:28;10.85;;;7.95;;
77495;SDS011;66600;48.378;9.948;2023-11-19T00:02:59;11.63;;;7.85;;
77495;SDS011;66600;48.378;9.948;2023-11-19T00:03:29;10.73;;;8.25;;
77495;SDS011;66600;48.378;9.948;2023-11-19T00:03:59;9.15;;;6.93;;
77495;SDS011;66600;48.378;9.948;2023-11-19T00:04:30;10.02;;;7.55;;
77495;SDS011;66600;48.378;9.948;2023-11-19T00:05:00;12.20;;;8.55;;
77495;SDS011;66600;48.378;9.948;2023-11-19T00:05:30;9.98;;;7.32;;
77495;SDS011;66600;48.378;9.948;2023-11-19T00:06:01;11.32;;;8.38;;
77495;SDS011;66600;48.378;9.948;2023-11-19T00:06:31;11.02;;;7.60;;
77495;SDS011;66600;48.378;9.948;2023-11-19T00:07:02;11.50;;;8.25;;
77495;SDS011;66600;48.378;9.948;2023-11-19T00:07:35;10.63;;;8.23;;
77495;SDS011;66600;48.378;9.948;2023-11-19T00:08:06;10.95;;;7.88;;
77495;SDS011;66600;48.378;9.948;2023-11-19T00:08:36;10.77;;;7.93;;
77495;SDS011;66600;48.378;9.948;2023-11-19T00:09:07;11.88;;;7.95;;
77495;SDS011;66600;48.378;9.948;2023-11-19T00:09:38;11.50;;;8.27;;
77495;SDS011;66600;48.378;9.948;2023-11-19T00:10:10;11.25;;;7.70;;
77495;SDS011;66600;48.378;9.948;2023-11-19T00:10:41;9.80;;;7.43;;
77495;SDS011;66600;48.378;9.948;2023-11-19T00:11:11;11.85;;;7.90;;
77495;SDS011;66600;48.378;9.948;2023-11-19T00:11:45;10.40;;;7.97;;
77495;SDS011;66600;48.378;9.948;2023-11-19T00:12:16;12.60;;;8.40;;
77495;SDS011;66600;48.378;9.948;2023-11-19T00:12:47;13.20;;;8.40;;
77495;SDS011;66600;48.378;9.948;2023-11-19T00:13:18;10.48;;;7.90;;
77495;SDS011;66600;48.378;9.948;2023-11-19T00:13:48;10.57;;;8.10;;
77495;SDS011;66600;48.378;9.948;2023-11-19T00:14:19;10.60;;;7.75;;
77495;SDS011;66600;48.378;9.948;2023-11-19T00:14:49;9.93;;;7.47;;
77495;SDS011;66600;48.378;9.948;2023-11-19T00:15:19;11.55;;;8.18;;
77495;SDS011;66600;48.378;9.948;2023-11-19T00:15:50;11.18;;;7.45;;
77495;SDS011;66600;48.378;9.948;2023-11-19T00:16:20;11.30;;;8.20;;
77495;SDS011;66600;48.378;9.948;2023-11-19T00:16:50;11.90;;;8.20;;
77495;SDS011;66600;48.378;9.948;2023-11-19T00:17:21;10.55;;;7.80;;
77495;SDS011;66600;48.378;9.948;2023-11-19T00:17:51;12.43;;;8.70;;
77495;SDS011;66600;48.378;9.948;2023-11-19T00:18:21;11.73;;;8.00;;
77495;SDS011;66600;48.378;9.948;2023-11-19T00:18:52;11.38;;;7.85;;
77495;SDS011;66600;48.378;9.948;2023-11-19T00:19:22;11.52;;;8.25;;
77495;SDS011;66600;48.378;9.948;2023-11-19T00:19:53;11.32;;;8.13;;
77495;SDS011;66600;48.378;9.948;2023-11-19T00:20:23;11.75;;;8.10;;
77495;SDS011;66600;48.378;9.948;2023-11-19T00:20:53;11.73;;;8.30;;
77495;SDS011;66600;48.378;9.948;2023-11-19T00:21:24;11.27;;;7.95;;
77495;SDS011;66600;48.378;9.948;2023-11-19T00:21:54;12.27;;;8.50;;
77495;SDS011;66600;48.378;9.948;2023-11-19T00:22:24;11.55;;;8.73;;
77495;SDS011;66600;48.378;9.948;2023-11-19T00:22:56;18.60;;;8.55;;
77495;SDS011;66600;48.378;9.948;2023-11-19T00:23:26;12.80;;;8.70;;
77495;SDS011;66600;48.378;9.948;2023-11-19T00:23:56;10.70;;;8.20;;
77495;SDS011;66600;48.378;9.948;2023-11-19T00:24:28;13.80;;;8.85;;
77495;SDS011;66600;48.378;9.948;2023-11-19T00:24:59;11.90;;;8.20;;
77495;SDS011;66600;48.378;9.948;2023-11-19T00:25:30;10.27;;;8.00;;
77495;SDS011;66600;48.378;9.948;2023-11-19T00:26:00;11.30;;;8.27;;
77495;SDS011;66600;48.378;9.948;2023-11-19T00:26:31;11.68;;;8.13;;
77495;SDS011;66600;48.378;9.948;2023-11-19T00:27:01;11.95;;;8.55;;
77495;SDS011;66600;48.378;9.948;2023-11-19T00:27:32;11.43;;;8.35;;
77495;SDS011;66600;48.378;9.948;2023-11-19T00:28:03;15.60;;;9.25;;
77495;SDS011;66600;48.378;9.948;2023-11-19T00:28:33;10.55;;;8.23;;
77495;SDS011;66600;48.378;9.948;2023-11-19T00:29:08;11.63;;;7.90;;
77495;SDS011;66600;48.378;9.948;2023-11-19T00:29:38;11.02;;;7.53;;
77495;SDS011;66600;48.378;9.948;2023-11-19T00:30:09;13.10;;;7.90;;
77495;SDS011;66600;48.378;9.948;2023-11-19T00:30:40;10.43;;;7.90;;
77495;SDS011;66600;48.378;9.948;2023-11-19T00:31:11;13.57;;;8.77;;
77495;SDS011;66600;48.378;9.948;2023-11-19T00:31:42;11.30;;;8.25;;
77495;SDS011;66600;48.378;9.948;2023-11-19T00:32:12;12.25;;;8.45;;
77495;SDS011;66600;48.378;9.948;2023-11-19T00:32:43;11.63;;;8.20;;
77495;SDS011;66600;48.378;9.948;2023-11-19T00:33:13;11.65;;;8.32;;
77495;SDS011;66600;48.378;9.948;2023-11-19T00:33:43;12.32;;;8.50;;
77495;SDS011;66600;48.378;9.948;2023-11-19T00:34:14;10.25;;;7.97;;
77495;SDS011;66600;48.378;9.948;2023-11-19T00:34:44;11.80;;;8.48;;
77495;SDS011;66600;48.378;9.948;2023-11-19T00:35:15;12.50;;;8.25;;
77495;SDS011;66600;48.378;9.948;2023-11-19T00:35:45;12.13;;;7.93;;
77495;SDS011;66600;48.378;9.948;2023-11-19T00:36:16;11.60;;;8.45;;
77495;SDS011;66600;48.378;9.948;2023-11-19T00:36:46;13.43;;;8.38;;
77495;SDS011;66600;48.378;9.948;2023-11-19T00:37:17;11.75;;;8.55;;
77495;SDS011;66600;48.378;9.948;2023-11-19T00:37:47;12.30;;;8.75;;
77495;SDS011;66600;48.378;9.948;2023-11-19T00:38:18;10.63;;;8.20;;
77495;SDS011;66600;48.378;9.948;2023-11-19T00:38:49;10.68;;;8.10;;
77495;SDS011;66600;48.378;9.948;2023-11-19T00:39:20;11.07;;;8.13;;
77495;SDS011;66600;48.378;9.948;2023-11-19T00:39:51;11.52;;;8.48;;
77495;SDS011;66600;48.378;9.948;2023-11-19T00:40:22;11.38;;;8.10;;
77495;SDS011;66600;48.378;9.948;2023-11-19T00:40:53;9.93;;;7.95;;
77495;SDS011;66600;48.378;9.948;2023-11-19T00:41:23;13.48;;;8.57;;
77495;SDS011;66600;48.378;9.948;2023-11-19T00:41:53;11.60;;;8.40;;
77495;SDS011;66600;48.378;9.948;2023-11-19T00:42:24;15.13;;;9.38;;
77495;SDS011;66600;48.378;9.948;2023-11-19T00:42:54;16.70;;;10.20;;
77495;SDS011;66600;48.378;9.948;2023-11-19T00:43:25;15.15;;;9.30;;
77495;SDS011;66600;48.378;9.948;2023-11-19T00:43:56;11.50;;;8.82;;
77495;SDS011;66600;48.378;9.948;2023-11-19T00:44:26;11.43;;;8.45;;
77495;SDS011;66600;48.378;9.948;2023-11-19T00:44:57;9.57;;;7.55;;
77495;SDS011;66600;48.378;9.948;2023-11-19T00:45:28;13.07;;;8.70;;
77495;SDS011;66600;48.378;9.948;2023-11-19T00:45:59;12.52;;;8.82;;
77495;SDS011;66600;48.378;9.948;2023-11-19T00:46:30;12.75;;;9.23;;
77495;SDS011;66600;48.378;9.948;2023-11-19T00:47:03;13.38;;;9.00;;
77495;SDS011;66600;48.378;9.948;2023-11-19T00:47:35;10.98;;;7.93;;
77495;SDS011;66600;48.378;9.948;2023-11-19T00:48:06;11.18;;;8.20;;
77495;SDS011;66600;48.378;9.948;2023-11-19T00:48:37;12.77;;;8.55;;
77495;SDS011;66600;48.378;9.948;2023-11-19T00:49:07;13.10;;;8.80;;
77495;SDS011;66600;48.378;9.948;2023-11-19T00:49:38;10.43;;;7.72;;
77495;SDS011;66600;48.378;9.948;2023-11-19T00:50:08;10.20;;;7.20;;
77495;SDS011;66600;48.378;9.948;2023-11-19T00:50:39;9.10;;;7.22;;
77495;SDS011;66600;48.378;9.948;2023-11-19T00:51:14;9.63;;;7.18;;
77495;SDS011;66600;48.378;9.948;2023-11-19T00:51:44;9.43;;;7.20;;
77495;SDS011;66600;48.378;9.948;2023-11-19T00:52:15;9.98;;;7.25;;
77495;SDS011;66600;48.378;9.948;2023-11-19T00:52:46;9.98;;;7.38;;
77495;SDS011;66600;48.378;9.948;2023-11-19T00:53:17;10.75;;;7.05;;
77495;SDS011;66600;48.378;9.948;2023-11-19T00:53:47;11.15;;;6.68;;
77495;SDS011;66600;48.378;9.948;2023-11-19T00:54:18;10.50;;;7.57;;
77495;SDS011;66600;48.378;9.948;2023-11-19T00:54:48;9.07;;;7.32;;
77495;SDS011;66600;48.378;9.948;2023-11-19T00:55:18;10.77;;;7.45;;
77495;SDS011;66600;48.378;9.948;2023-11-19T00:55:49;9.63;;;7.68;;
77495;SDS011;66600;48.378;9.948;2023-11-19T00:56:19;9.88;;;7.40;;
77495;SDS011;66600;48.378;9.948;2023-11-19T00:56:50;11.27;;;8.30;;
77495;SDS011;66600;48.378;9.948;2023-11-19T00:57:22;10.63;;;7.70;;
77495;SDS011;66600;48.378;9.948;2023-11-19T00:57:54;11.93;;;8.07;;
77495;SDS011;66600;48.378;9.948;2023-11-19T00:58:26;11.77;;;8.23;;
77495;SDS011;66600;48.378;9.948;2023-11-19T00:58:57;12.43;;;8.82;;
77495;SDS011;66600;48.378;9.948;2023-11-19T00:59:27;12.05;;;8.50;;
77495;SDS011;66600;48.378;9.948;2023-11-19T00:59:59;11.93;;;8.73;;
77495;SDS011;66600;48.378;9.948;2023-11-19T01:00:29;13.13;;;8.43;;
77495;SDS011;66600;48.378;9.948;2023-11-19T01:01:02;12.23;;;8.88;;
77495;SDS011;66600;48.378;9.948;2023-11-19T01:01:32;12.02;;;8.77;;
77495;SDS011;66600;48.378;9.948;2023-11-19T01:02:03;11.77;;;8.43;;
77495;SDS011;66600;48.378;9.948;2023-11-19T01:02:34;11.30;;;8.55;;
77495;SDS011;66600;48.378;9.948;2023-11-19T01:03:05;12.70;;;8.40;;
77495;SDS011;66600;48.378;9.948;2023-11-19T01:03:37;12.45;;;8.80;;
77495;SDS011;66600;48.378;9.948;2023-11-19T01:04:07;11.80;;;8.23;;
77495;SDS011;66600;48.378;9.948;2023-11-19T01:04:38;11.20;;;8.43;;
77495;SDS011;66600;48.378;9.948;2023-11-19T01:05:09;11.90;;;8.35;;
77495;SDS011;66600;48.378;9.948;2023-11-19T01:05:39;12.63;;;8.30;;
77495;SDS011;66600;48.378;9.948;2023-11-19T01:06:10;11.65;;;8.75;;
77495;SDS011;66600;48.378;9.948;2023-11-19T01:06:40;12.45;;;8.95;;
77495;SDS011;66600;48.378;9.948;2023-11-19T01:07:12;10.57;;;8.18;;
77495;SDS011;66600;48.378;9.948;2023-11-19T01:07:42;12.93;;;9.30;;
77495;SDS011;66600;48.378;9.948;2023-11-19T01:08:13;13.15;;;9.15;;
77495;SDS011;66600;48.378;9.948;2023-11-19T01:08:44;12.23;;;8.35;;
77495;SDS011;66600;48.378;9.948;2023-11-19T01:09:15;11.15;;;7.82;;
77495;SDS011;66600;48.378;9.948;2023-11-19T01:09:45;11.95;;;8.48;;
77495;SDS011;66600;48.378;9.948;2023-11-19T01:10:15;12.25;;;9.02;;
77495;SDS011;66600;48.378;9.948;2023-11-19T01:10:46;12.45;;;8.85;;
77495;SDS011;66600;48.378;9.948;2023-11-19T01:11:21;11.77;;;8.55;;
77495;SDS011;66600;48.378;9.948;2023-11-19T01:11:51;12.43;;;9.25;;
77495;SDS011;66600;48.378;9.948;2023-11-19T01:12:22;12.68;;;8.90;;
77495;SDS011;66600;48.378;9.948;2023-11-19T01:12:52;14.68;;;9.75;;
77495;SDS011;66600;48.378;9.948;2023-11-19T01:13:23;14.00;;;9.88;;
77495;SDS011;66600;48.378;9.948;2023-11-19T01:13:54;14.68;;;9.00;;
77495;SDS011;66600;48.378;9.948;2023-11-19T01:14:25;12.10;;;8.95;;
77495;SDS011;66600;48.378;9.948;2023-11-19T01:14:55;12.05;;;8.90;;
77495;SDS011;66600;48.378;9.948;2023-11-19T01:15:26;13.30;;;9.18;;
77495;SDS011;66600;48.378;9.948;2023-11-19T01:15:57;12.73;;;9.13;;
77495;SDS011;66600;48.378;9.948;2023-11-19T01:16:27;12.57;;;9.02;;
77495;SDS011;66600;48.378;9.948;2023-11-19T01:16:58;16.70;;;9.80;;
77495;SDS011;66600;48.378;9.948;2023-11-19T01:17:28;12.32;;;8.98;;
77495;SDS011;66600;48.378;9.948;2023-11-19T01:18:01;12.85;;;9.50;;
77495;SDS011;66600;48.378;9.948;2023-11-19T01:18:34;13.48;;;9.13;;
77495;SDS011;66600;48.378;9.948;2023-11-19T01:19:05;12.30;;;9.38;;
77495;SDS011;66600;48.378;9.948;2023-11-19T01:19:36;15.10;;;10.25;;
77495;SDS011;66600;48.378;9.948;2023-11-19T01:20:06;14.77;;;9.73;;
77495;SDS011;66600;48.378;9.948;2023-11-19T01:20:37;13.55;;;9.77;;
77495;SDS011;66600;48.378;9.948;2023-11-19T01:21:07;15.82;;;10.57;;
77495;SDS011;66600;48.378;9.948;2023-11-19T01:21:38;17.75;;;10.13;;
77495;SDS011;66600;48.378;9.948;2023-11-19T01:22:08;14.38;;;9.98;;
77495;SDS011;66600;48.378;9.948;2023-11-19T01:22:39;14.30;;;10.02;;
77495;SDS011;66600;48.378;9.948;2023-11-19T01:23:10;14.07;;;10.25;;
77495;SDS011;66600;48.378;9.948;2023-11-19T01:23:41;13.15;;;9.20;;
77495;SDS011;66600;48.378;9.948;2023-11-19T01:24:14;12.25;;;9.50;;
77495;SDS011;66600;48.378;9.948;2023-11-19T01:24:45;14.00;;;9.75;;
77495;SDS011;66600;48.378;9.948;2023-11-19T01:25:16;13.63;;;9.32;;
77495;SDS011;66600;48.378;9.948;2023-11-19T01:25:46;15.25;;;9.82;;
77495;SDS011;66600;48.378;9.948;2023-11-19T01:26:18;14.90;;;10.13;;
77495;SDS011;66600;48.378;9.948;2023-11-19T01:26:48;14.25;;;9.90;;
77495;SDS011;66600;48.378;9.948;2023-11-19T01:27:19;13.50;;;9.75;;
77495;SDS011;66600;48.378;9.948;2023-11-19T01:27:49;13.65;;;9.80;;
77495;SDS011;66600;48.378;9.948;2023-11-19T01:28:20;14.02;;;10.35;;
77495;SDS011;66600;48.378;9.948;2023-11-19T01:28:50;16.95;;;10.60;;
77495;SDS011;66600;48.378;9.948;2023-11-19T01:29:22;15.02;;;10.80;;
77495;SDS011;66600;48.378;9.948;2023-11-19T01:29:53;14.38;;;10.43;;
77495;SDS011;66600;48.378;9.948;2023-11-19T01:30:24;14.63;;;10.40;;
77495;SDS011;66600;48.378;9.948;2023-11-19T01:30:54;13.75;;;9.60;;
77495;SDS011;66600;48.378;9.948;2023-11-19T01:31:24;14.48;;;9.88;;
77495;SDS011;66600;48.378;9.948;2023-11-19T01:31:55;15.63;;;10.00;;
77495;SDS011;66600;48.378;9.948;2023-11-19T01:32:25;14.13;;;9.80;;
77495;SDS011;66600;48.378;9.948;2023-11-19T01:32:55;13.30;;;9.52;;
77495;SDS011;66600;48.378;9.948;2023-11-19T01:33:26;12.88;;;9.10;;
77495;SDS011;66600;48.378;9.948;2023-11-19T01:33:58;13.48;;;9.38;;
77495;SDS011;66600;48.378;9.948;2023-11-19T01:34:28;13.05;;;9.80;;
77495;SDS011;66600;48.378;9.948;2023-11-19T01:34:58;14.00;;;10.23;;
77495;SDS011;66600;48.378;9.948;2023-11-19T01:35:29;14.20;;;10.20;;
77495;SDS011;66600;48.378;9.948;2023-11-19T01:35:59;13.98;;;10.27;;
77495;SDS011;66600;48.378;9.948;2023-11-19T01:36:29;14.43;;;9.80;;
77495;SDS011;66600;48.378;9.948;2023-11-19T01:37:00;14.18;;;9.50;;
77495;SDS011;66600;48.378;9.948;2023-11-19T01:37:30;13.75;;;10.45;;
77495;SDS011;66600;48.378;9.948;2023-11-19T01:38:02;13.65;;;9.77;;
77495;SDS011;66600;48.378;9.948;2023-11-19T01:38:32;15.77;;;10.00;;
77495;SDS011;66600;48.378;9.948;2023-11-19T01:39:02;12.30;;;9.63;;
77495;SDS011;66600;48.378;9.948;2023-11-19T01:39:34;14.23;;;10.18;;
77495;SDS011;66600;48.378;9.948;2023-11-19T01:40:05;14.57;;;9.82;;
77495;SDS011;66600;48.378;9.948;2023-11-19T01:40:37;14.05;;;10.27;;
77495;SDS011;66600;48.378;9.948;2023-11-19T01:41:08;12.70;;;9.05;;
77495;SDS011;66600;48.378;9.948;2023-11-19T01:41:38;13.23;;;9.43;;
77495;SDS011;66600;48.378;9.948;2023-11-19T01:42:09;13.02;;;9.52;;
77495;SDS011;66600;48.378;9.948;2023-11-19T01:42:40;13.10;;;9.23;;
77495;SDS011;66600;48.378;9.948;2023-11-19T01:43:10;14.75;;;10.15;;
77495;SDS011;66600;48.378;9.948;2023-11-19T01:43:41;13.00;;;9.57;;
77495;SDS011;66600;48.378;9.948;2023-11-19T01:44:12;13.00;;;9.35;;
77495;SDS011;66600;48.378;9.948;2023-11-19T01:44:42;14.35;;;10.32;;
77495;SDS011;66600;48.378;9.948;2023-11-19T01:45:28;12.90;;;9.25;;
77495;SDS011;66600;48.378;9.948;2023-11-19T01:46:00;13.73;;;9.50;;
77495;SDS011;66600;48.378;9.948;2023-11-19T01:46:33;13.80;;;10.23;;
77495;SDS011;66600;48.378;9.948;2023-11-19T01:47:05;12.18;;;9.45;;
77495;SDS011;66600;48.378;9.948;2023-11-19T01:47:36;14.35;;;9.57;;
77495;SDS011;66600;48.378;9.948;2023-11-19T01:48:07;13.70;;;10.25;;
77495;SDS011;66600;48.378;9.948;2023-11-19T01:48:45;14.30;;;10.05;;
77495;SDS011;66600;48.378;9.948;2023-11-19T01:49:16;13.85;;;9.88;;
77495;SDS011;66600;48.378;9.948;2023-11-19T01:49:49;13.82;;;10.07;;
77495;SDS011;66600;48.378;9.948;2023-11-19T01:50:21;14.23;;;10.40;;
77495;SDS011;66600;48.378;9.948;2023-11-19T01:50:52;15.50;;;10.45;;
77495;SDS011;66600;48.378;9.948;2023-11-19T01:51:23;14.02;;;10.30;;
77495;SDS011;66600;48.378;9.948;2023-11-19T01:51:53;14.85;;;10.30;;
77495;SDS011;66600;48.378;9.948;2023-11-19T01:52:24;13.77;;;10.10;;
77495;SDS011;66600;48.378;9.948;2023-11-19T01:52:55;14.05;;;10.13;;
77495;SDS011;66600;48.378;9.948;2023-11-19T01:53:30;14.02;;;9.93;;
77495;SDS011;66600;48.378;9.948;2023-11-19T01:54:00;14.70;;;10.55;;
77495;SDS011;66600;48.378;9.948;2023-11-19T01:54:31;14.10;;;9.82;;
77495;SDS011;66600;48.378;9.948;2023-11-19T01:55:03;15.50;;;10.90;;
77495;SDS011;66600;48.378;9.948;2023-11-19T01:55:34;15.82;;;10.32;;
77495;SDS011;66600;48.378;9.948;2023-11-19T01:56:04;14.70;;;10.63;;
77495;SDS011;66600;48.378;9.948;2023-11-19T01:56:39;15.20;;;10.63;;
77495;SDS011;66600;48.378;9.948;2023-11-19T01:57:10;13.88;;;10.15;;
77495;SDS011;66600;48.378;9.948;2023-11-19T01:57:41;14.60;;;10.30;;
77495;SDS011;66600;48.378;9.948;2023-11-19T01:58:12;14.82;;;10.15;;
77495;SDS011;66600;48.378;9.948;2023-11-19T01:58:45;13.50;;;9.95;;
77495;SDS011;66600;48.378;9.948;2023-11-19T01:59:17;13.73;;;9.82;;
77495;SDS011;66600;48.378;9.948;2023-11-19T01:59:48;13.85;;;10.43;;
77495;SDS011;66600;48.378;9.948;2023-11-19T02:00:21;14.18;;;9.82;;
77495;SDS011;66600;48.378;9.948;2023-11-19T02:00:51;14.65;;;10.18;;
77495;SDS011;66600;48.378;9.948;2023-11-19T02:01:21;13.88;;;10.27;;
77495;SDS011;66600;48.378;9.948;2023-11-19T02:01:55;15.32;;;10.45;;
77495;SDS011;66600;48.378;9.948;2023-11-19T02:02:27;14.88;;;9.85;;
77495;SDS011;66600;48.378;9.948;2023-11-19T02:02:57;14.65;;;10.43;;
77495;SDS011;66600;48.378;9.948;2023-11-19T02:03:27;16.35;;;10.30;;
77495;SDS011;66600;48.378;9.948;2023-11-19T02:03:59;14.35;;;10.38;;
77495;SDS011;66600;48.378;9.948;2023-11-19T02:04:29;14.73;;;10.48;;
77495;SDS011;66600;48.378;9.948;2023-11-19T02:05:00;15.25;;;10.38;;
77495;SDS011;66600;48.378;9.948;2023-11-19T02:05:30;14.90;;;10.25;;
77495;SDS011;66600;48.378;9.948;2023-11-19T02:06:02;14.07;;;10.10;;
77495;SDS011;66600;48.378;9.948;2023-11-19T02:06:33;14.07;;;10.07;;
77495;SDS011;66600;48.378;9.948;2023-11-19T02:07:06;15.65;;;10.30;;
77495;SDS011;66600;48.378;9.948;2023-11-19T02:07:37;15.65;;;10.63;;
77495;SDS011;66600;48.378;9.948;2023-11-19T02:08:08;15.30;;;10.60;;
77495;SDS011;66600;48.378;9.948;2023-11-19T02:08:38;15.48;;;10.43;;
77495;SDS011;66600;48.378;9.948;2023-11-19T02:09:09;14.05;;;9.73;;
77495;SDS011;66600;48.378;9.948;2023-11-19T02:09:43;13.80;;;10.57;;
77495;SDS011;66600;48.378;9.948;2023-11-19T02:10:14;14.38;;;10.70;;
77495;SDS011;66600;48.378;9.948;2023-11-19T02:10:46;14.55;;;9.35;;
77495;SDS011;66600;48.378;9.948;2023-11-19T02:11:17;13.85;;;9.82;;
77495;SDS011;66600;48.378;9.948;2023-11-19T02:11:47;14.35;;;10.02;;
77495;SDS011;66600;48.378;9.948;2023-11-19T02:12:21;12.30;;;9.57;;
77495;SDS011;66600;48.378;9.948;2023-11-19T02:12:51;14.45;;;10.40;;
77495;SDS011;66600;48.378;9.948;2023-11-19T02:13:22;14.63;;;9.80;;
77495;SDS011;66600;48.378;9.948;2023-11-19T02:13:52;14.93;;;10.15;;
77495;SDS011;66600;48.378;9.948;2023-11-19T02:14:23;16.02;;;9.98;;
77495;SDS011;66600;48.378;9.948;2023-11-19T02:14:55;14.80;;;9.80;;
77495;SDS011;66600;48.378;9.948;2023-11-19T02:15:26;14.43;;;10.30;;
77495;SDS011;66600;48.378;9.948;2023-11-19T02:15:56;13.50;;;9.57;;
77495;SDS011;66600;48.378;9.948;2023-11-19T02:16:26;15.05;;;10.88;;
77495;SDS011;66600;48.378;9.948;2023-11-19T02:16:58;15.52;;;10.57;;
77495;SDS011;66600;48.378;9.948;2023-11-19T02:17:31;14.57;;;10.30;;
77495;SDS011;66600;48.378;9.948;2023-11-19T02:18:20;15.65;;;10.98;;
77495;SDS011;66600;48.378;9.948;2023-11-19T02:18:57;14.75;;;10.70;;
77495;SDS011;66600;48.378;9.948;2023-11-19T02:19:28;14.48;;;10.60;;
77495;SDS011;66600;48.378;9.948;2023-11-19T02:19:59;17.00;;;10.70;;
77495;SDS011;66600;48.378;9.948;2023-11-19T02:20:29;15.65;;;10.65;;
77495;SDS011;66600;48.378;9.948;2023-11-19T02:20:59;14.82;;;10.68;;
77495;SDS011;66600;48.378;9.948;2023-11-19T02:21:30;14.25;;;10.48;;
77495;SDS011;66600;48.378;9.948;2023-11-19T02:22:00;15.63;;;10.55;;
77495;SDS011;66600;48.378;9.948;2023-11-19T02:22:31;15.48;;;10.93;;
77495;SDS011;66600;48.378;9.948;2023-11-19T02:23:01;14.80;;;10.35;;
77495;SDS011;66600;48.378;9.948;2023-11-19T02:23:31;16.50;;;10.88;;
77495;SDS011;66600;48.378;9.948;2023-11-19T02:24:03;15.25;;;10.70;;
77495;SDS011;66600;48.378;9.948;2023-11-19T02:24:37;15.00;;;9.52;;
77495;SDS011;66600;48.378;9.948;2023-11-19T02:25:09;15.40;;;10.30;;
77495;SDS011;66600;48.378;9.948;2023-11-19T02:25:47;16.83;;;10.80;;
77495;SDS011;66600;48.378;9.948;2023-11-19T02:26:28;14.85;;;10.23;;
77495;SDS011;66600;48.378;9.948;2023-11-19T02:27:04;17.60;;;10.30;;
77495;SDS011;66600;48.378;9.948;2023-11-19T02:28:01;14.18;;;10.25;;
77495;SDS011;66600;48.378;9.948;2023-11-19T02:28:33;13.38;;;9.13;;
77495;SDS011;66600;48.378;9.948;2023-11-19T02:29:04;15.68;;;10.02;;
77495;SDS011;66600;48.378;9.948;2023-11-19T02:29:34;14.73;;;10.15;;
77495;SDS011;66600;48.378;9.948;2023-11-19T02:30:05;15.60;;;10.43;;
77495;SDS011;66600;48.378;9.948;2023-11-19T02:30:38;15.48;;;10.43;;
77495;SDS011;66600;48.378;9.948;2023-11-19T02:31:09;13.30;;;9.80;;
77495;SDS011;66600;48.378;9.948;2023-11-19T02:31:39;14.15;;;9.68;;
77495;SDS011;66600;48.378;9.948;2023-11-19T02:32:10;12.80;;;9.40;;
77495;SDS011;66600;48.378;9.948;2023-11-19T02:32:43;14.23;;;9.85;;
77495;SDS011;66600;48.378;9.948;2023-11-19T02:33:13;13.50;;;9.38;;
77495;SDS011;66600;48.378;9.948;2023-11-19T02:33:45;13.25;;;9.18;;
77495;SDS011;66600;48.378;9.948;2023-11-19T02:34:15;14.07;;;10.25;;
77495;SDS011;66600;48.378;9.948;2023-11-19T02:34:46;14.63;;;10.23;;
77495;SDS011;66600;48.378;9.948;2023-11-19T02:35:16;13.63;;;9.88;;
77495;SDS011;66600;48.378;9.948;2023-11-19T02:35:47;14.07;;;9.93;;
77495;SDS011;66600;48.378;9.948;2023-11-19T02:36:17;12.55;;;8.82;;
77495;SDS011;66600;48.378;9.948;2023-11-19T02:36:47;13.45;;;9.68;;
77495;SDS011;66600;48.378;9.948;2023-11-19T02:37:18;14.48;;;9.63;;
77495;SDS011;66600;48.378;9.948;2023-11-19T02:37:49;13.05;;;9.35;;
77495;SDS011;66600;48.378;9.948;2023-11-19T02:38:19;13.52;;;9.38;;
77495;SDS011;66600;48.378;9.948;2023-11-19T02:38:51;12.43;;;8.93;;
77495;SDS011;66600;48.378;9.948;2023-11-19T02:39:22;12.45;;;8.20;;
77495;SDS011;66600;48.378;9.948;2023-11-19T02:39:52;13.02;;;9.23;;
77495;SDS011;66600;48.378;9.948;2023-11-19T02:40:22;14.73;;;9.80;;
77495;SDS011;66600;48.378;9.948;2023-11-19T02:40:56;12.00;;;8.98;;
77495;SDS011;66600;48.378;9.948;2023-11-19T02:41:27;11.98;;;8.55;;
77495;SDS011;66600;48.378;9.948;2023-11-19T02:41:57;12.82;;;8.73;;
77495;SDS011;66600;48.378;9.948;2023-11-19T02:42:28;13.18;;;9.52;;
77495;SDS011;66600;48.378;9.948;2023-11-19T02:42:58;12.90;;;8.70;;
77495;SDS011;66600;48.378;9.948;2023-11-19T02:43:29;12.02;;;8.75;;
77495;SDS011;66600;48.378;9.948;2023-11-19T02:44:01;13.60;;;8.80;;
77495;SDS011;66600;48.378;9.948;2023-11-19T02:44:31;12.05;;;8.32;;
77495;SDS011;66600;48.378;9.948;2023-11-19T02:45:01;12.57;;;9.07;;
77495;SDS011;66600;48.378;9.948;2023-11-19T02:45:36;12.02;;;8.35;;
77495;SDS011;66600;48.378;9.948;2023-11-19T02:46:06;11.27;;;8.25;;
77495;SDS011;66600;48.378;9.948;2023-11-19T02:46:37;12.32;;;8.88;;
77495;SDS011;66600;48.378;9.948;2023-11-19T02:47:07;12.30;;;8.90;;
77495;SDS011;66600;48.378;9.948;2023-11-19T02:47:38;13.27;;;9.32;;
77495;SDS011;66600;48.378;9.948;2023-11-19T02:48:08;11.93;;;8.90;;
77495;SDS011;66600;48.378;9.948;2023-11-19T02:48:39;12.18;;;8.70;;
77495;SDS011;66600;48.378;9.948;2023-11-19T02:49:10;14.00;;;8.93;;
77495;SDS011;66600;48.378;9.948;2023-11-19T02:49:40;13.48;;;8.85;;
77495;SDS011;66600;48.378;9.948;2023-11-19T02:50:11;13.23;;;9.05;;
77495;SDS011;66600;48.378;9.948;2023-11-19T02:50:44;13.32;;;9.05;;
77495;SDS011;66600;48.378;9.948;2023-11-19T02:51:14;12.00;;;8.73;;
77495;SDS011;66600;48.378;9.948;2023-11-19T02:51:45;13.40;;;8.55;;
77495;SDS011;66600;48.378;9.948;2023-11-19T02:52:15;12.55;;;9.20;;
77495;SDS011;66600;48.378;9.948;2023-11-19T02:52:45;14.13;;;8.77;;
77495;SDS011;66600;48.378;9.948;2023-11-19T02:53:16;12.15;;;8.43;;
77495;SDS011;66600;48.378;9.948;2023-11-19T02:53:46;11.85;;;8.57;;
77495;SDS011;66600;48.378;9.948;2023-11-19T02:54:18;11.75;;;8.25;;
77495;SDS011;66600;48.378;9.948;2023-11-19T02:54:49;11.15;;;8.52;;
77495;SDS011;66600;48.378;9.948;2023-11-19T02:55:20;10.35;;;7.68;;
77495;SDS011;66600;48.378;9.948;2023-11-19T02:55:50;11.57;;;8.70;;
77495;SDS011;66600;48.378;9.948;2023-11-19T02:56:21;11.85;;;8.30;;
77495;SDS011;66600;48.378;9.948;2023-11-19T02:56:59;11.93;;;8.65;;
77495;SDS011;66600;48.378;9.948;2023-11-19T02:57:31;10.70;;;7.85;;
77495;SDS011;66600;48.378;9.948;2023-11-19T02:58:02;11.98;;;8.00;;
77495;SDS011;66600;48.378;9.948;2023-11-19T02:58:38;12.23;;;8.00;;
77495;SDS011;66600;48.378;9.948;2023-11-19T02:59:09;11.88;;;8.43;;
77495;SDS011;66600;48.378;9.948;2023-11-19T02:59:50;10.85;;;7.85;;
77495;SDS011;66600;48.378;9.948;2023-11-19T03:00:21;10.98;;;8.10;;
77495;SDS011;66600;48.378;9.948;2023-11-19T03:01:02;11.43;;;7.80;;
77495;SDS011;66600;48.378;9.948;2023-11-19T03:01:42;11.25;;;7.95;;
77495;SDS011;66600;48.378;9.948;2023-11-19T03:02:13;13.20;;;8.73;;
77495;SDS011;66600;48.378;9.948;2023-11-19T03:02:46;12.10;;;8.43;;
77495;SDS011;66600;48.378;9.948;2023-11-19T03:03:17;11.93;;;8.68;;
77495;SDS011;66600;48.378;9.948;2023-11-19T03:03:51;11.80;;;8.45;;
77495;SDS011;66600;48.378;9.948;2023-11-19T03:04:27;11.10;;;8.10;;
77495;SDS011;66600;48.378;9.948;2023-11-19T03:04:58;11.50;;;8.32;;
77495;SDS011;66600;48.378;9.948;2023-11-19T03:05:29;12.05;;;8.30;;